createdAt,value
2017-10-27T00:01:32.088Z,53.10
2017-10-27T00:03:59.576Z,44.60
2017-10-27T00:06:27.165Z,50.40
2017-10-27T00:08:54.643Z,53.30
2017-10-27T00:11:22.097Z,54.37
2017-10-27T00:13:49.652Z,57.33
2017-10-27T00:16:17.136Z,53.90
2017-10-27T00:18:44.822Z,53.17
2017-10-27T00:21:12.482Z,56.90
2017-10-27T00:23:39.954Z,53.13
2017-10-27T00:26:07.426Z,55.13
2017-10-27T00:28:34.953Z,54.17
2017-10-27T00:31:02.433Z,54.23
2017-10-27T00:33:29.889Z,57.60
2017-10-27T00:35:57.448Z,51.90
2017-10-27T00:38:24.906Z,52.73
2017-10-27T00:40:52.373Z,59.00
2017-10-27T00:43:19.918Z,53.23
2017-10-27T00:45:47.398Z,54.60
2017-10-27T00:48:14.940Z,52.20
2017-10-27T00:50:42.447Z,57.30
2017-10-27T00:53:09.921Z,51.37
2017-10-27T00:55:37.394Z,54.00
2017-10-27T00:58:04.927Z,54.63
2017-10-27T01:00:32.406Z,64.80
2017-10-27T01:02:59.873Z,55.30
2017-10-27T01:05:27.358Z,59.17
2017-10-27T01:07:54.858Z,60.90
2017-10-27T01:10:22.315Z,58.57
2017-10-27T01:12:49.833Z,57.90
2017-10-27T01:15:17.448Z,60.73
2017-10-27T01:17:44.915Z,58.67
2017-10-27T01:20:12.435Z,58.43
2017-10-27T01:22:39.928Z,56.53
2017-10-27T01:25:07.397Z,55.63
2017-10-27T01:27:34.920Z,60.33
2017-10-27T01:30:02.400Z,55.63
2017-10-27T01:32:29.889Z,56.63
2017-10-27T01:34:57.410Z,58.00
2017-10-27T01:37:24.893Z,64.63
2017-10-27T01:39:52.379Z,59.97
2017-10-27T01:42:19.883Z,52.33
2017-10-27T01:44:47.349Z,52.33
2017-10-27T01:47:14.831Z,55.27
2017-10-27T01:49:42.344Z,50.73
2017-10-27T01:52:09.881Z,55.27
2017-10-27T01:54:37.598Z,52.67
2017-10-27T01:57:05.105Z,56.53
2017-10-27T01:59:32.556Z,58.20
2017-10-27T02:02:00.029Z,51.97
2017-10-27T02:04:27.631Z,58.53
2017-10-27T02:06:55.092Z,58.00
2017-10-27T02:09:22.601Z,51.87
2017-10-27T02:11:50.604Z,53.33
2017-10-27T02:14:18.100Z,58.47
2017-10-27T02:16:45.576Z,55.00
2017-10-27T02:19:13.090Z,59.00
2017-10-27T02:21:40.576Z,54.63
2017-10-27T02:24:08.036Z,58.20
2017-10-27T02:26:35.547Z,52.83
2017-10-27T02:29:02.996Z,48.17
2017-10-27T02:31:30.473Z,50.27
2017-10-27T02:33:57.985Z,48.40
2017-10-27T02:36:25.442Z,51.57
2017-10-27T02:38:52.941Z,50.70
2017-10-27T02:41:20.460Z,47.60
2017-10-27T02:43:47.932Z,49.73
2017-10-27T02:46:15.515Z,51.57
2017-10-27T02:48:43.007Z,50.80
2017-10-27T02:51:10.487Z,45.80
2017-10-27T02:53:37.948Z,48.70
2017-10-27T02:56:05.440Z,48.00
2017-10-27T02:58:33.018Z,47.53
2017-10-27T03:01:00.495Z,47.63
2017-10-27T03:03:27.994Z,46.60
2017-10-27T03:05:55.468Z,48.77
2017-10-27T03:08:22.993Z,49.50
2017-10-27T03:10:50.494Z,53.30
2017-10-27T03:13:17.955Z,47.67
2017-10-27T03:15:45.417Z,47.10
2017-10-27T03:18:12.935Z,43.23
2017-10-27T03:20:40.411Z,44.53
2017-10-27T03:23:07.883Z,42.67
2017-10-27T03:25:35.433Z,46.87
2017-10-27T03:28:02.909Z,49.80
2017-10-27T03:30:30.402Z,50.70
2017-10-27T03:32:57.932Z,52.10
2017-10-27T03:35:25.399Z,53.37
2017-10-27T03:37:52.858Z,60.33
2017-10-27T03:40:20.375Z,51.23
2017-10-27T03:42:47.863Z,51.40
2017-10-27T03:45:15.427Z,54.60
2017-10-27T03:47:42.910Z,55.60
2017-10-27T03:50:11.201Z,55.30
2017-10-27T03:52:38.685Z,54.40
2017-10-27T03:55:06.165Z,60.53
2017-10-27T03:57:33.628Z,47.87
2017-10-27T04:00:01.095Z,65.23
2017-10-27T04:02:28.614Z,57.77
2017-10-27T04:04:56.141Z,66.43
2017-10-27T04:07:23.610Z,60.47
2017-10-27T04:09:51.120Z,63.40
2017-10-27T04:12:18.586Z,59.20
2017-10-27T04:14:46.068Z,62.60
2017-10-27T04:17:13.608Z,62.27
2017-10-27T04:19:41.074Z,64.17
2017-10-27T04:22:08.536Z,55.30
2017-10-27T04:24:36.037Z,67.27
2017-10-27T04:27:03.516Z,66.00
2017-10-27T04:29:31.014Z,69.37
2017-10-27T04:31:58.503Z,64.87
2017-10-27T04:34:25.959Z,61.37
2017-10-27T04:36:53.428Z,67.47
2017-10-27T04:39:20.932Z,66.13
2017-10-27T04:41:48.395Z,66.10
2017-10-27T04:44:15.918Z,71.53
2017-10-27T04:46:43.412Z,69.57
2017-10-27T04:49:10.892Z,59.87
2017-10-27T04:51:38.368Z,67.87
2017-10-27T04:54:05.878Z,73.17
2017-10-27T04:56:33.575Z,69.40
2017-10-27T04:59:01.053Z,65.30
2017-10-27T05:01:28.537Z,67.27
2017-10-27T05:03:55.998Z,65.50
2017-10-27T05:06:23.502Z,65.27
2017-10-27T05:08:51.096Z,74.73
2017-10-27T05:11:18.562Z,76.67
2017-10-27T05:13:46.043Z,65.90
2017-10-27T05:16:13.546Z,71.13
2017-10-27T05:18:46.577Z,79.67
2017-10-27T05:21:19.630Z,67.83
2017-10-27T05:23:52.573Z,73.73
2017-10-27T05:26:20.073Z,69.30
2017-10-27T05:28:47.535Z,75.37
2017-10-27T05:31:15.008Z,71.50
2017-10-27T05:33:42.571Z,76.40
2017-10-27T05:36:10.065Z,74.87
2017-10-27T05:38:37.559Z,79.53
2017-10-27T05:41:05.065Z,84.33
2017-10-27T05:43:32.527Z,82.47
2017-10-27T05:46:00.040Z,76.00
2017-10-27T05:48:27.580Z,70.53
2017-10-27T05:50:55.050Z,71.30
2017-10-27T05:53:22.521Z,81.50
2017-10-27T05:55:50.033Z,88.47
2017-10-27T05:58:18.006Z,85.03
2017-10-27T06:00:45.798Z,77.40
2017-10-27T06:03:13.305Z,83.70
2017-10-27T06:05:40.780Z,88.60
2017-10-27T06:08:08.252Z,81.73
2017-10-27T06:10:35.774Z,84.23
2017-10-27T06:13:03.238Z,86.80
2017-10-27T06:15:30.723Z,80.63
2017-10-27T06:17:58.254Z,80.80
2017-10-27T06:20:25.742Z,86.33
2017-10-27T06:22:53.224Z,82.87
2017-10-27T06:25:20.718Z,84.00
2017-10-27T06:27:48.185Z,90.70
2017-10-27T06:30:15.660Z,83.57
2017-10-27T06:32:43.163Z,82.70
2017-10-27T06:35:10.635Z,82.53
2017-10-27T06:37:38.110Z,72.07
2017-10-27T06:40:05.675Z,66.93
2017-10-27T06:42:33.139Z,89.53
2017-10-27T06:45:00.608Z,77.20
2017-10-27T06:47:28.109Z,68.80
2017-10-27T06:49:55.596Z,69.90
2017-10-27T06:52:23.069Z,65.63
2017-10-27T06:54:50.592Z,61.80
2017-10-27T06:57:18.051Z,67.50
2017-10-27T06:59:45.521Z,64.80
2017-10-27T07:02:13.121Z,58.53
2017-10-27T07:04:40.605Z,55.27
2017-10-27T07:07:08.118Z,61.83
2017-10-27T07:09:35.674Z,63.77
2017-10-27T07:12:03.208Z,54.50
2017-10-27T07:14:30.923Z,52.50
2017-10-27T07:16:58.443Z,55.20
2017-10-27T07:19:25.976Z,47.30
2017-10-27T07:21:53.488Z,46.57
2017-10-27T07:24:21.023Z,52.10
2017-10-27T07:26:48.535Z,52.67
2017-10-27T07:29:16.027Z,49.33
2017-10-27T07:31:43.661Z,54.27
2017-10-27T07:34:11.181Z,54.83
2017-10-27T07:36:38.678Z,52.43
2017-10-27T07:39:06.198Z,44.47
2017-10-27T07:41:33.720Z,41.60
2017-10-27T07:44:01.208Z,46.77
2017-10-27T07:46:28.759Z,48.83
2017-10-27T07:48:56.447Z,46.80
2017-10-27T07:51:23.957Z,48.20
2017-10-27T07:53:51.502Z,44.93
2017-10-27T07:56:19.011Z,45.23
2017-10-27T07:58:46.488Z,45.40
2017-10-27T08:01:14.050Z,46.93
2017-10-27T08:03:41.535Z,48.87
2017-10-27T08:06:09.042Z,53.30
2017-10-27T08:08:36.611Z,39.73
2017-10-27T08:11:04.127Z,44.40
2017-10-27T08:13:31.641Z,44.53
2017-10-27T08:15:59.203Z,41.10
2017-10-27T08:18:27.039Z,43.57
2017-10-27T08:20:54.539Z,37.70
2017-10-27T08:23:22.094Z,60.83
2017-10-27T08:25:49.711Z,63.27
2017-10-27T08:28:17.463Z,71.97
2017-10-27T08:30:45.290Z,48.53
2017-10-27T08:33:12.826Z,40.20
2017-10-27T08:35:40.426Z,38.73
2017-10-27T08:38:07.999Z,37.80
2017-10-27T08:40:35.515Z,38.00
2017-10-27T08:43:09.747Z,37.73
2017-10-27T08:45:37.259Z,35.87
2017-10-27T08:48:04.752Z,38.57
2017-10-27T08:50:32.568Z,36.90
2017-10-27T08:53:00.230Z,35.57
2017-10-27T08:55:27.721Z,37.63
2017-10-27T08:57:55.258Z,40.60
2017-10-27T09:00:22.796Z,40.00
2017-10-27T09:02:50.303Z,41.60
2017-10-27T09:05:17.859Z,39.20
2017-10-27T09:07:45.361Z,36.47
2017-10-27T09:10:12.847Z,36.00
2017-10-27T09:12:40.377Z,39.27
2017-10-27T09:15:07.876Z,43.30
2017-10-27T09:17:35.369Z,35.80
2017-10-27T09:20:02.918Z,38.30
2017-10-27T09:22:30.630Z,39.57
2017-10-27T09:24:58.140Z,33.43
2017-10-27T09:27:25.677Z,34.57
2017-10-27T09:29:53.180Z,35.50
2017-10-27T09:32:20.683Z,37.00
2017-10-27T09:34:48.228Z,37.33
2017-10-27T09:37:15.707Z,36.23
2017-10-27T09:39:43.180Z,51.00
2017-10-27T09:42:10.736Z,38.50
2017-10-27T09:44:38.260Z,41.07
2017-10-27T09:47:05.917Z,17.20
2017-10-27T09:49:33.421Z,14.17
2017-10-27T09:52:00.894Z,11.40
2017-10-27T09:54:28.713Z,8.93
2017-10-27T09:56:56.261Z,7.20
2017-10-27T09:59:23.773Z,5.07
2017-10-27T10:01:51.281Z,6.70
2017-10-27T10:04:18.817Z,3.70
2017-10-27T10:06:46.991Z,2.50
2017-10-27T10:09:14.499Z,2.13
2017-10-27T10:11:42.046Z,1.43
2017-10-27T10:14:09.570Z,1.47
2017-10-27T10:16:37.075Z,1.33
2017-10-27T10:19:04.603Z,1.10
2017-10-27T10:21:32.100Z,3.07
2017-10-27T10:23:59.687Z,1.13
2017-10-27T10:26:27.330Z,1.10
2017-10-27T10:28:54.833Z,4.13
2017-10-27T10:31:22.318Z,1.00
2017-10-27T10:33:49.841Z,1.30
2017-10-27T10:36:17.381Z,2.00
2017-10-27T10:38:44.913Z,2.73
2017-10-27T10:41:12.433Z,1.47
2017-10-27T10:43:39.941Z,1.60
2017-10-27T10:46:07.597Z,1.60
2017-10-27T10:48:35.125Z,1.80
2017-10-27T10:51:02.671Z,3.73
2017-10-27T10:53:30.374Z,2.17
2017-10-27T10:55:57.922Z,3.63
2017-10-27T10:58:25.414Z,1.30
2017-10-27T11:00:53.248Z,2.17
2017-10-27T11:03:20.826Z,2.70
2017-10-27T11:05:48.305Z,3.90
2017-10-27T11:08:16.129Z,1.77
2017-10-27T11:10:43.757Z,1.87
2017-10-27T11:13:11.372Z,2.80
2017-10-27T11:15:38.938Z,2.27
2017-10-27T11:18:06.490Z,2.13
2017-10-27T11:20:34.481Z,2.30
2017-10-27T11:23:02.076Z,4.07
2017-10-27T11:25:29.670Z,2.27
2017-10-27T11:27:57.268Z,1.77
2017-10-27T11:30:25.454Z,1.60
2017-10-27T11:32:53.024Z,4.27
2017-10-27T11:35:20.549Z,2.20
2017-10-27T11:37:48.115Z,3.93
2017-10-27T11:40:15.772Z,3.93
2017-10-27T11:42:43.895Z,2.17
2017-10-27T11:45:11.472Z,2.07
2017-10-27T11:47:39.075Z,3.80
2017-10-27T11:50:06.664Z,1.97
2017-10-27T11:52:34.832Z,1.50
2017-10-27T11:55:02.468Z,10.87
2017-10-27T11:57:30.045Z,1.97
2017-10-27T11:59:57.569Z,4.40
2017-10-27T12:02:25.180Z,3.63
2017-10-27T12:04:52.689Z,3.50
2017-10-27T12:07:20.175Z,3.07
2017-10-27T12:09:47.742Z,4.03
2017-10-27T12:12:15.248Z,10.67
2017-10-27T12:14:42.722Z,2.60
2017-10-27T12:17:10.229Z,2.53
2017-10-27T12:19:37.738Z,3.57
2017-10-27T12:22:05.322Z,2.90
2017-10-27T12:24:32.833Z,2.00
2017-10-27T12:27:00.314Z,3.53
2017-10-27T12:29:27.790Z,3.50
2017-10-27T12:31:55.334Z,2.07
2017-10-27T12:34:22.831Z,2.13
2017-10-27T12:36:50.480Z,2.60
2017-10-27T12:39:18.038Z,1.80
2017-10-27T12:41:45.514Z,3.77
2017-10-27T12:44:13.049Z,2.23
2017-10-27T12:46:40.567Z,2.77
2017-10-27T12:49:08.057Z,1.80
2017-10-27T12:51:35.537Z,1.60
2017-10-27T12:54:03.082Z,2.10
2017-10-27T12:56:30.746Z,1.47
2017-10-27T12:58:58.242Z,1.30
2017-10-27T13:01:25.770Z,1.50
2017-10-27T13:03:53.382Z,2.23
2017-10-27T13:06:20.875Z,1.40
2017-10-27T13:08:48.388Z,1.83
2017-10-27T13:11:15.911Z,1.43
2017-10-27T13:13:43.418Z,0.83
2017-10-27T13:16:10.930Z,1.10
2017-10-27T13:18:38.447Z,1.30
2017-10-27T13:21:06.864Z,1.23
2017-10-27T13:23:34.425Z,3.10
2017-10-27T13:26:01.913Z,2.00
2017-10-27T13:28:29.387Z,1.87
2017-10-27T13:30:56.868Z,1.00
2017-10-27T13:33:24.342Z,1.27
2017-10-27T13:35:51.865Z,1.33
2017-10-27T13:38:19.391Z,1.53
2017-10-27T13:40:46.896Z,1.40
2017-10-27T13:43:14.356Z,1.50
2017-10-27T13:45:41.878Z,1.13
2017-10-27T13:48:09.396Z,1.07
2017-10-27T13:50:36.993Z,2.00
2017-10-27T13:53:04.515Z,1.80
2017-10-27T13:55:31.994Z,1.60
2017-10-27T13:57:59.481Z,10.10
2017-10-27T14:00:27.696Z,1.60
2017-10-27T14:02:55.162Z,1.33
2017-10-27T14:05:22.659Z,2.17
2017-10-27T14:07:50.180Z,2.03
2017-10-27T14:10:17.689Z,1.37
2017-10-27T14:12:45.350Z,1.60
2017-10-27T14:15:12.867Z,2.80
2017-10-27T14:17:40.364Z,2.20
2017-10-27T14:20:07.883Z,1.40
2017-10-27T14:22:35.425Z,1.40
2017-10-27T14:25:02.904Z,1.60
2017-10-27T14:27:30.382Z,1.27
2017-10-27T14:29:57.892Z,1.50
2017-10-27T14:32:25.438Z,3.93
2017-10-27T14:34:52.898Z,2.47
2017-10-27T14:37:20.412Z,2.80
2017-10-27T14:39:47.918Z,2.37
2017-10-27T14:42:15.470Z,2.93
2017-10-27T14:44:42.968Z,1.60
2017-10-27T14:47:10.474Z,2.50
2017-10-27T14:49:37.962Z,2.03
2017-10-27T14:52:05.539Z,1.93
2017-10-27T14:54:33.066Z,1.70
2017-10-27T14:57:00.550Z,1.43
2017-10-27T14:59:28.046Z,2.00
2017-10-27T15:01:55.602Z,1.30
2017-10-27T15:04:23.080Z,2.27
2017-10-27T15:06:50.613Z,1.50
2017-10-27T15:09:18.148Z,2.17
2017-10-27T15:11:45.621Z,1.97
2017-10-27T15:14:13.134Z,1.90
2017-10-27T15:16:40.601Z,1.90
2017-10-27T15:19:08.126Z,2.60
2017-10-27T15:21:35.629Z,1.63
2017-10-27T15:24:03.096Z,1.80
2017-10-27T15:26:31.862Z,2.03
2017-10-27T15:28:59.378Z,2.73
2017-10-27T15:31:26.858Z,1.90
2017-10-27T15:33:54.358Z,1.70
2017-10-27T15:36:21.906Z,2.00
2017-10-27T15:38:49.378Z,1.80
2017-10-27T15:41:16.840Z,4.10
2017-10-27T15:43:44.368Z,3.63
2017-10-27T15:46:11.844Z,2.40
2017-10-27T15:48:39.318Z,2.43
2017-10-27T15:51:06.844Z,2.80
2017-10-27T15:53:34.320Z,3.53
2017-10-27T15:56:01.807Z,3.07
2017-10-27T15:58:29.354Z,10.17
2017-10-27T16:00:56.814Z,9.47
2017-10-27T16:03:24.291Z,6.10
2017-10-27T16:05:51.788Z,19.63
2017-10-27T16:08:19.271Z,4.87
2017-10-27T16:10:46.764Z,3.20
2017-10-27T16:13:14.261Z,1.80
2017-10-27T16:15:41.730Z,5.67
2017-10-27T16:18:09.260Z,1.80
2017-10-27T16:20:36.797Z,2.00
2017-10-27T16:23:04.344Z,1.80
2017-10-27T16:25:31.827Z,1.63
2017-10-27T16:27:59.346Z,2.00
2017-10-27T16:30:26.865Z,3.70
2017-10-27T16:32:54.355Z,2.13
2017-10-27T16:35:21.865Z,3.30
2017-10-27T16:37:49.338Z,3.17
2017-10-27T16:40:16.842Z,2.30
2017-10-27T16:42:44.375Z,2.50
2017-10-27T16:45:11.874Z,1.87
2017-10-27T16:47:39.365Z,1.70
2017-10-27T16:50:06.873Z,2.90
2017-10-27T16:52:34.393Z,2.60
2017-10-27T16:55:01.880Z,4.50
2017-10-27T16:57:29.373Z,2.13
2017-10-27T16:59:56.867Z,1.83
2017-10-27T17:02:24.330Z,2.83
2017-10-27T17:04:51.839Z,1.60
2017-10-27T17:07:19.319Z,2.03
2017-10-27T17:09:46.806Z,2.43
2017-10-27T17:12:14.305Z,2.20
2017-10-27T17:14:41.797Z,2.00
2017-10-27T17:17:09.265Z,2.90
2017-10-27T17:19:36.770Z,2.67
2017-10-27T17:22:04.273Z,2.57
2017-10-27T17:24:31.812Z,2.07
2017-10-27T17:26:59.383Z,3.50
2017-10-27T17:29:26.868Z,3.37
2017-10-27T17:31:54.349Z,3.37
2017-10-27T17:34:21.824Z,3.80
2017-10-27T17:36:49.321Z,3.33
2017-10-27T17:39:17.309Z,5.03
2017-10-27T17:41:44.822Z,4.17
2017-10-27T17:44:12.319Z,3.60
2017-10-27T17:46:39.870Z,2.37
2017-10-27T17:49:07.390Z,2.50
2017-10-27T17:51:34.908Z,4.00
2017-10-27T17:54:02.405Z,2.10
2017-10-27T17:56:30.033Z,2.33
2017-10-27T17:58:57.560Z,2.00
2017-10-27T18:01:25.099Z,2.60
2017-10-27T18:03:52.661Z,2.00
2017-10-27T18:06:20.392Z,2.03
2017-10-27T18:08:47.900Z,10.73
2017-10-27T18:11:15.434Z,3.83
2017-10-27T18:13:42.933Z,6.90
2017-10-27T18:16:10.393Z,3.37
2017-10-27T18:18:37.903Z,7.23
2017-10-27T18:21:05.410Z,3.33
2017-10-27T18:23:32.864Z,1.90
2017-10-27T18:26:00.444Z,2.30
2017-10-27T18:28:27.954Z,1.87
2017-10-27T18:30:55.438Z,4.77
2017-10-27T18:33:22.946Z,3.60
2017-10-27T18:35:50.432Z,4.87
2017-10-27T18:38:18.092Z,4.37
2017-10-27T18:40:45.696Z,4.33
2017-10-27T18:43:13.192Z,2.20
2017-10-27T18:45:40.679Z,2.90
2017-10-27T18:48:08.173Z,4.77
2017-10-27T18:50:35.654Z,7.57
2017-10-27T18:53:03.155Z,6.00
2017-10-27T18:58:03.486Z,2.70
2017-10-27T19:00:31.263Z,3.10
2017-10-27T19:02:58.811Z,2.97
2017-10-27T19:05:26.307Z,4.80
2017-10-27T19:07:53.858Z,3.77
2017-10-27T19:10:21.325Z,2.90
2017-10-27T19:12:48.854Z,2.40
2017-10-27T19:15:16.450Z,4.20
2017-10-27T19:17:43.964Z,11.37
2017-10-27T19:20:11.451Z,2.40
2017-10-27T19:22:38.937Z,4.40
2017-10-27T19:25:06.395Z,4.80
2017-10-27T19:27:33.876Z,2.40
2017-10-27T19:30:01.398Z,2.60
2017-10-27T19:32:28.921Z,6.00
2017-10-27T19:34:56.404Z,2.50
2017-10-27T19:37:23.924Z,2.70
2017-10-27T19:39:51.388Z,2.40
2017-10-27T19:42:18.846Z,2.30
2017-10-27T19:44:46.363Z,2.30
2017-10-27T19:47:13.873Z,5.20
2017-10-27T19:49:41.341Z,2.97
2017-10-27T19:52:08.837Z,2.50
2017-10-27T19:54:36.316Z,2.60
2017-10-27T19:57:03.816Z,3.63
2017-10-27T19:59:31.309Z,5.07
2017-10-27T20:01:58.760Z,4.47
2017-10-27T20:04:26.224Z,3.33
2017-10-27T20:06:53.716Z,5.10
2017-10-27T20:09:21.254Z,4.30
2017-10-27T20:11:48.722Z,2.20
2017-10-27T20:14:16.281Z,1.83
2017-10-27T20:16:43.763Z,3.73
2017-10-27T20:19:11.231Z,2.60
2017-10-27T20:21:38.734Z,3.33
2017-10-27T20:24:06.195Z,2.57
2017-10-27T20:26:33.658Z,2.33
2017-10-27T20:29:01.168Z,3.57
2017-10-27T20:31:28.711Z,2.30
2017-10-27T20:33:56.178Z,3.57
2017-10-27T20:36:23.677Z,2.03
2017-10-27T20:38:51.163Z,3.20
2017-10-27T20:41:18.851Z,8.27
2017-10-27T20:43:46.346Z,7.57
2017-10-27T20:46:13.832Z,2.90
2017-10-27T20:48:41.401Z,3.73
2017-10-27T20:51:08.938Z,3.63
2017-10-27T20:53:36.396Z,3.50
2017-10-27T20:56:03.873Z,2.20
2017-10-27T20:58:31.757Z,2.37
2017-10-27T21:00:59.227Z,3.20
2017-10-27T21:03:26.706Z,7.17
2017-10-27T21:05:54.202Z,4.13
2017-10-27T21:08:21.678Z,3.87
2017-10-27T21:10:49.185Z,3.10
2017-10-27T21:13:16.693Z,3.37
2017-10-27T21:15:44.147Z,3.37
2017-10-27T21:18:11.635Z,3.70
2017-10-27T21:20:39.146Z,2.37
2017-10-27T21:23:06.610Z,4.17
2017-10-27T21:25:34.076Z,2.47
2017-10-27T21:28:01.586Z,2.80
2017-10-27T21:30:29.133Z,2.23
2017-10-27T21:32:56.675Z,4.03
2017-10-27T21:35:24.164Z,2.30
2017-10-27T21:37:51.689Z,3.90
2017-10-27T21:40:19.161Z,4.23
2017-10-27T21:42:46.654Z,4.63
2017-10-27T21:45:14.101Z,3.10
2017-10-27T21:47:41.561Z,3.00
2017-10-27T21:50:09.083Z,3.57
2017-10-27T21:52:36.541Z,5.23
2017-10-27T21:55:04.024Z,2.50
2017-10-27T21:57:31.588Z,1.97
2017-10-27T21:59:59.036Z,2.30
2017-10-27T22:02:26.521Z,2.30
2017-10-27T22:04:54.024Z,3.57
2017-10-27T22:07:21.544Z,7.20
2017-10-27T22:09:49.024Z,2.50
2017-10-27T22:12:16.506Z,3.13
2017-10-27T22:14:43.985Z,2.77
2017-10-27T22:17:11.433Z,3.00
2017-10-27T22:19:38.941Z,3.47
2017-10-27T22:22:06.428Z,3.03
2017-10-27T22:24:33.924Z,2.47
2017-10-27T22:27:01.441Z,3.53
2017-10-27T22:29:28.900Z,2.33
2017-10-27T22:31:56.369Z,6.60
2017-10-27T22:34:23.930Z,3.50
2017-10-27T22:36:51.402Z,2.03
2017-10-27T22:39:18.882Z,2.47
2017-10-27T22:41:46.384Z,2.47
2017-10-27T22:44:13.880Z,4.73
2017-10-27T22:46:41.368Z,2.40
2017-10-27T22:49:08.911Z,2.60
2017-10-27T22:51:36.392Z,2.50
2017-10-27T22:54:03.858Z,3.70
2017-10-27T22:56:32.373Z,2.33
2017-10-27T22:58:59.830Z,4.23
2017-10-27T23:01:27.296Z,3.77
2017-10-27T23:03:54.809Z,2.27
2017-10-27T23:06:22.269Z,3.33
2017-10-27T23:08:49.738Z,4.20
2017-10-27T23:11:17.254Z,4.93
2017-10-27T23:13:44.709Z,2.93
2017-10-27T23:16:12.197Z,3.50
2017-10-27T23:18:39.966Z,2.57
2017-10-27T23:21:07.436Z,2.77
2017-10-27T23:23:34.891Z,2.40
2017-10-27T23:26:02.389Z,3.07
2017-10-27T23:28:29.953Z,2.70
2017-10-27T23:30:57.450Z,2.83
2017-10-27T23:33:24.957Z,3.10
2017-10-27T23:35:52.448Z,6.70
2017-10-27T23:38:19.909Z,2.70
2017-10-27T23:40:47.444Z,2.50
2017-10-27T23:43:14.914Z,1.90
2017-10-27T23:45:42.386Z,2.03
2017-10-27T23:48:09.890Z,4.17
2017-10-27T23:50:37.344Z,2.00
2017-10-27T23:53:04.807Z,2.93
2017-10-27T23:55:32.286Z,3.40
2017-10-27T23:57:59.756Z,3.40
